createdAt,value
2023-04-15T00:01:00.017Z,5.06
2023-04-15T00:03:29.904Z,5.12
2023-04-15T00:05:59.882Z,5.14
2023-04-15T00:08:30.210Z,5.15
2023-04-15T00:11:03.073Z,5.18
2023-04-15T00:13:35.598Z,5.20
2023-04-15T00:16:03.763Z,5.22
2023-04-15T00:18:32.788Z,5.13
2023-04-15T00:21:01.311Z,5.21
2023-04-15T00:23:29.439Z,5.08
2023-04-15T00:25:58.378Z,5.08
2023-04-15T00:28:27.682Z,5.02
2023-04-15T00:30:56.576Z,5.07
2023-04-15T00:33:25.546Z,5.10
2023-04-15T00:35:54.071Z,5.15
2023-04-15T00:38:22.179Z,5.19
2023-04-15T00:40:50.901Z,5.18
2023-04-15T00:43:19.278Z,5.19
2023-04-15T00:45:47.660Z,5.21
2023-04-15T00:48:16.659Z,5.28
2023-04-15T00:50:44.873Z,5.21
2023-04-15T00:53:13.073Z,5.28
2023-04-15T00:55:42.548Z,5.29
2023-04-15T00:58:11.391Z,5.31
2023-04-15T01:00:40.937Z,5.25
2023-04-15T01:03:10.017Z,5.28
2023-04-15T01:05:38.983Z,5.26
2023-04-15T01:08:08.332Z,5.35
2023-04-15T01:10:37.927Z,5.36
2023-04-15T01:13:06.314Z,5.36
2023-04-15T01:15:36.324Z,5.27
2023-04-15T01:18:05.406Z,5.27
2023-04-15T01:20:35.252Z,5.27
2023-04-15T01:23:03.641Z,5.34
2023-04-15T01:25:33.742Z,5.41
2023-04-15T01:28:02.456Z,5.42
2023-04-15T01:30:34.807Z,5.43
2023-04-15T01:33:03.809Z,5.29
2023-04-15T01:35:37.364Z,5.40
2023-04-15T01:38:07.676Z,5.32
2023-04-15T01:40:36.094Z,5.37
2023-04-15T01:43:04.672Z,5.41
2023-04-15T01:45:33.349Z,5.41
2023-04-15T01:48:01.660Z,5.41
2023-04-15T01:50:30.107Z,5.40
2023-04-15T01:52:58.617Z,5.37
2023-04-15T01:55:27.089Z,5.36
2023-04-15T01:57:56.103Z,5.28
2023-04-15T02:00:25.068Z,5.31
2023-04-15T02:02:54.037Z,5.37
2023-04-15T02:05:22.399Z,5.41
2023-04-15T02:07:50.835Z,5.41
2023-04-15T02:10:19.697Z,5.31
2023-04-15T02:12:48.004Z,5.34
2023-04-15T02:15:16.663Z,5.30
2023-04-15T02:17:46.112Z,5.27
2023-04-15T02:20:18.247Z,5.29
2023-04-15T02:22:47.339Z,5.34
2023-04-15T02:25:17.265Z,5.29
2023-04-15T02:27:46.119Z,5.32
2023-04-15T02:30:15.048Z,5.35
2023-04-15T02:32:45.193Z,5.40
2023-04-15T02:35:13.935Z,5.37
2023-04-15T02:37:45.780Z,5.42
2023-04-15T02:40:14.286Z,5.48
2023-04-15T02:42:44.346Z,5.47
2023-04-15T02:45:13.011Z,5.40
2023-04-15T02:47:41.986Z,5.44
2023-04-15T02:50:13.284Z,5.43
2023-04-15T02:52:42.933Z,5.40
2023-04-15T02:55:11.691Z,5.34
2023-04-15T02:57:41.255Z,5.35
2023-04-15T03:00:11.913Z,5.07
2023-04-15T03:02:42.218Z,5.16
2023-04-15T03:05:14.829Z,5.22
2023-04-15T03:07:44.010Z,5.23
2023-04-15T03:10:12.278Z,5.26
2023-04-15T03:12:41.234Z,5.28
2023-04-15T03:15:10.490Z,5.30
2023-04-15T03:17:38.865Z,5.32
2023-04-15T03:20:07.954Z,5.33
2023-04-15T03:22:36.799Z,5.16
2023-04-15T03:25:05.367Z,5.20
2023-04-15T03:27:34.104Z,5.26
2023-04-15T03:30:03.362Z,5.30
2023-04-15T03:32:32.508Z,5.34
2023-04-15T03:35:00.921Z,5.37
2023-04-15T03:37:29.588Z,5.18
2023-04-15T03:39:57.809Z,5.09
2023-04-15T03:42:26.189Z,5.14
2023-04-15T03:44:54.660Z,5.24
2023-04-15T03:47:23.087Z,5.31
2023-04-15T03:49:51.471Z,5.34
2023-04-15T03:52:20.041Z,5.23
2023-04-15T03:54:48.142Z,5.18
2023-04-15T03:57:16.494Z,5.17
2023-04-15T03:59:44.932Z,5.22
2023-04-15T04:02:13.212Z,5.28
2023-04-15T04:04:41.811Z,5.23
2023-04-15T04:07:16.087Z,5.33
2023-04-15T04:09:47.046Z,5.39
2023-04-15T04:12:15.806Z,5.46
2023-04-15T04:14:43.950Z,5.52
2023-04-15T04:17:12.542Z,5.53
2023-04-15T04:19:40.994Z,5.57
2023-04-15T04:22:09.392Z,5.59
2023-04-15T04:24:37.897Z,5.60
2023-04-15T04:27:06.337Z,5.56
2023-04-15T04:29:34.476Z,5.51
2023-04-15T04:32:03.368Z,5.60
2023-04-15T04:34:32.578Z,5.58
2023-04-15T04:37:00.840Z,5.67
2023-04-15T04:39:29.391Z,5.56
2023-04-15T04:41:57.944Z,5.58
2023-04-15T04:44:26.278Z,5.58
2023-04-15T04:46:54.846Z,5.61
2023-04-15T04:49:23.097Z,5.55
2023-04-15T04:51:51.517Z,5.58
2023-04-15T04:54:20.146Z,5.68
2023-04-15T04:56:48.500Z,5.72
2023-04-15T04:59:17.030Z,5.79
2023-04-15T05:01:46.994Z,5.87
2023-04-15T05:04:15.395Z,5.87
2023-04-15T05:06:43.796Z,5.92
2023-04-15T05:09:12.498Z,5.98
2023-04-15T05:11:40.840Z,6.08
2023-04-15T05:14:09.073Z,6.10
2023-04-15T05:16:37.866Z,6.15
2023-04-15T05:19:06.306Z,6.20
2023-04-15T05:21:34.609Z,6.18
2023-04-15T05:24:03.236Z,6.18
2023-04-15T05:26:31.601Z,6.14
2023-04-15T05:29:00.275Z,6.31
2023-04-15T05:31:29.042Z,6.27
2023-04-15T05:33:57.288Z,6.28
2023-04-15T05:36:26.021Z,6.34
2023-04-15T05:38:54.582Z,6.26
2023-04-15T05:41:22.726Z,6.19
2023-04-15T05:43:51.554Z,6.23
2023-04-15T05:46:20.118Z,6.40
2023-04-15T05:48:48.534Z,6.43
2023-04-15T05:51:16.909Z,6.55
2023-04-15T05:53:46.160Z,6.58
2023-04-15T05:56:14.361Z,6.49
2023-04-15T05:58:42.584Z,6.55
2023-04-15T06:01:11.249Z,6.58
2023-04-15T06:03:40.406Z,6.53
2023-04-15T06:06:08.799Z,6.70
2023-04-15T06:08:37.495Z,6.71
2023-04-15T06:11:06.208Z,6.67
2023-04-15T06:13:35.045Z,6.76
2023-04-15T06:16:04.321Z,6.82
2023-04-15T06:18:33.130Z,6.82
2023-04-15T06:21:01.338Z,6.86
2023-04-15T06:23:30.251Z,6.79
2023-04-15T06:25:58.606Z,6.95
2023-04-15T06:28:27.102Z,7.06
2023-04-15T06:30:56.471Z,7.11
2023-04-15T06:33:25.112Z,7.13
2023-04-15T06:35:53.512Z,7.20
2023-04-15T06:38:22.178Z,7.18
2023-04-15T06:40:50.553Z,7.16
2023-04-15T06:43:18.786Z,7.30
2023-04-15T06:45:47.633Z,7.23
2023-04-15T06:48:16.657Z,7.15
2023-04-15T06:50:45.324Z,7.34
2023-04-15T06:53:13.799Z,7.31
2023-04-15T06:55:42.427Z,7.51
2023-04-15T06:58:10.919Z,7.61
2023-04-15T07:00:39.535Z,7.80
2023-04-15T07:03:11.113Z,8.04
2023-04-15T07:05:39.726Z,8.05
2023-04-15T07:08:08.401Z,8.08
2023-04-15T07:10:37.139Z,8.31
2023-04-15T07:13:05.951Z,8.46
2023-04-15T07:15:35.031Z,8.33
2023-04-15T07:18:03.570Z,8.13
2023-04-15T07:20:31.860Z,8.31
2023-04-15T07:23:00.783Z,9.09
2023-04-15T07:25:28.900Z,9.58
2023-04-15T07:27:57.341Z,9.25
2023-04-15T07:30:26.158Z,9.28
2023-04-15T07:32:54.498Z,9.76
2023-04-15T07:35:23.466Z,9.68
2023-04-15T07:37:52.282Z,9.77
2023-04-15T07:40:20.485Z,9.92
2023-04-15T07:42:49.543Z,10.22
2023-04-15T07:45:18.138Z,10.10
2023-04-15T07:47:46.316Z,9.41
2023-04-15T07:50:14.828Z,9.67
2023-04-15T07:52:44.433Z,9.75
2023-04-15T07:55:12.495Z,9.95
2023-04-15T07:57:40.844Z,10.09
2023-04-15T08:00:09.903Z,9.77
2023-04-15T08:02:41.642Z,9.59
2023-04-15T08:05:11.092Z,9.77
2023-04-15T08:07:39.767Z,9.88
2023-04-15T08:10:08.913Z,9.74
2023-04-15T08:12:37.704Z,9.90
2023-04-15T08:15:08.278Z,10.07
2023-04-15T08:17:36.653Z,10.32
2023-04-15T08:20:06.093Z,10.00
2023-04-15T08:22:34.538Z,9.93
2023-04-15T08:25:03.578Z,9.81
2023-04-15T08:27:32.162Z,9.83
2023-04-15T08:30:02.088Z,10.18
2023-04-15T08:32:32.600Z,10.44
2023-04-15T08:35:00.814Z,10.93
2023-04-15T08:37:28.995Z,11.17
2023-04-15T08:39:57.713Z,11.15
2023-04-15T08:42:33.977Z,11.02
2023-04-15T08:45:05.349Z,10.73
2023-04-15T08:47:34.502Z,10.84
2023-04-15T08:50:04.429Z,10.82
2023-04-15T08:52:33.049Z,11.41
2023-04-15T08:55:03.279Z,11.08
2023-04-15T08:57:33.663Z,10.86
2023-04-15T09:00:05.666Z,10.79
2023-04-15T09:02:34.747Z,10.69
2023-04-15T09:05:05.027Z,10.48
2023-04-15T09:07:35.921Z,10.24
2023-04-15T09:10:05.453Z,9.98
2023-04-15T09:12:37.729Z,9.88
2023-04-15T09:15:07.263Z,9.74
2023-04-15T09:17:35.617Z,9.74
2023-04-15T09:20:11.435Z,9.68
2023-04-15T09:22:41.641Z,9.74
2023-04-15T09:25:18.750Z,10.53
2023-04-15T09:27:58.298Z,11.40
2023-04-15T09:30:28.700Z,11.84
2023-04-15T09:33:08.609Z,11.29
2023-04-15T09:35:37.333Z,10.92
2023-04-15T09:38:09.951Z,10.75
2023-04-15T09:40:42.049Z,10.93
2023-04-15T09:43:13.105Z,11.26
2023-04-15T09:45:51.938Z,11.06
2023-04-15T09:48:28.982Z,10.76
2023-04-15T09:51:01.859Z,10.48
2023-04-15T09:53:34.512Z,10.27
2023-04-15T09:56:03.273Z,10.18
2023-04-15T09:58:35.109Z,10.11
2023-04-15T10:01:05.257Z,9.96
2023-04-15T10:03:36.931Z,10.01
2023-04-15T10:06:05.815Z,9.96
2023-04-15T10:08:35.166Z,9.78
2023-04-15T10:11:05.351Z,9.71
2023-04-15T10:13:36.084Z,9.69
2023-04-15T10:16:08.905Z,9.80
2023-04-15T10:18:43.012Z,9.99
2023-04-15T10:21:13.953Z,10.17
2023-04-15T10:23:42.979Z,10.35
2023-04-15T10:26:12.754Z,10.47
2023-04-15T10:28:41.757Z,10.52
2023-04-15T10:31:15.166Z,10.77
2023-04-15T10:33:44.528Z,11.02
2023-04-15T10:36:13.361Z,10.90
2023-04-15T10:38:44.020Z,10.85
2023-04-15T10:41:19.550Z,10.54
2023-04-15T10:44:02.759Z,10.28
2023-04-15T10:46:46.747Z,10.25
2023-04-15T10:49:17.176Z,10.56
2023-04-15T10:51:51.316Z,10.83
2023-04-15T10:54:25.358Z,11.06
2023-04-15T10:57:06.674Z,11.16
2023-04-15T10:59:39.405Z,11.33
2023-04-15T11:02:09.062Z,11.60
2023-04-15T11:05:07.530Z,11.87
2023-04-15T11:07:42.009Z,11.39
2023-04-15T11:10:31.370Z,11.05
2023-04-15T11:13:01.258Z,10.97
2023-04-15T11:15:38.046Z,10.69
2023-04-15T11:18:16.973Z,10.46
2023-04-15T11:21:00.224Z,10.51
2023-04-15T11:23:41.087Z,10.50
2023-04-15T11:26:12.321Z,10.89
2023-04-15T11:28:43.941Z,10.94
2023-04-15T11:31:17.908Z,10.94
2023-04-15T11:33:55.238Z,11.03
2023-04-15T11:36:28.047Z,10.97
2023-04-15T11:38:59.089Z,10.98
2023-04-15T11:41:27.332Z,10.85
2023-04-15T11:43:55.694Z,10.71
2023-04-15T11:46:31.404Z,10.64
2023-04-15T11:49:00.263Z,10.68
2023-04-15T11:51:32.970Z,10.69
2023-04-15T11:54:01.460Z,10.69
2023-04-15T11:56:30.042Z,10.70
2023-04-15T11:59:02.407Z,10.85
2023-04-15T12:01:47.224Z,10.66
2023-04-15T12:04:20.155Z,10.77
2023-04-15T12:06:50.691Z,10.88
2023-04-15T12:09:20.539Z,11.22
2023-04-15T12:11:50.325Z,11.12
2023-04-15T12:14:24.847Z,11.09
2023-04-15T12:16:58.687Z,10.82
2023-04-15T12:19:28.957Z,10.71
2023-04-15T12:22:00.924Z,10.86
2023-04-15T12:24:32.812Z,10.78
2023-04-15T12:27:06.188Z,10.59
2023-04-15T12:29:36.268Z,10.56
2023-04-15T12:32:09.162Z,10.60
2023-04-15T12:34:45.172Z,10.40
2023-04-15T12:37:14.419Z,10.47
2023-04-15T12:39:45.359Z,10.51
2023-04-15T12:42:15.063Z,10.51
2023-04-15T12:44:43.846Z,10.41
2023-04-15T12:47:13.213Z,10.44
2023-04-15T12:49:41.906Z,10.41
2023-04-15T12:52:10.594Z,10.44
2023-04-15T12:54:39.733Z,10.51
2023-04-15T12:57:07.983Z,10.49
2023-04-15T12:59:36.777Z,10.53
2023-04-15T13:02:05.378Z,10.50
2023-04-15T13:04:34.140Z,10.53
2023-04-15T13:07:02.915Z,10.38
2023-04-15T13:09:31.571Z,10.46
2023-04-15T13:12:00.394Z,10.68
2023-04-15T13:14:29.144Z,10.90
2023-04-15T13:16:58.142Z,11.16
2023-04-15T13:19:26.975Z,11.22
2023-04-15T13:21:56.470Z,11.03
2023-04-15T13:24:24.628Z,11.03
2023-04-15T13:26:53.722Z,11.06
2023-04-15T13:29:22.336Z,10.96
2023-04-15T13:31:50.592Z,10.76
2023-04-15T13:34:19.207Z,10.75
2023-04-15T13:36:47.830Z,10.75
2023-04-15T13:39:16.109Z,10.73
2023-04-15T13:41:44.470Z,10.63
2023-04-15T13:44:13.632Z,10.60
2023-04-15T13:46:42.677Z,10.49
2023-04-15T13:49:11.399Z,10.45
2023-04-15T13:51:40.646Z,10.41
2023-04-15T13:54:09.227Z,10.41
2023-04-15T13:56:37.537Z,10.34
2023-04-15T13:59:06.824Z,10.46
2023-04-15T14:01:35.826Z,10.47
2023-04-15T14:04:04.896Z,10.44
2023-04-15T14:06:33.420Z,10.41
2023-04-15T14:09:01.603Z,10.31
2023-04-15T14:11:30.568Z,10.26
2023-04-15T14:13:59.216Z,10.18
2023-04-15T14:16:27.516Z,10.08
2023-04-15T14:18:56.520Z,10.02
2023-04-15T14:21:26.406Z,9.99
2023-04-15T14:23:54.933Z,9.98
2023-04-15T14:26:23.549Z,10.01
2023-04-15T14:28:52.004Z,10.08
2023-04-15T14:31:20.275Z,10.20
2023-04-15T14:33:49.287Z,10.34
2023-04-15T14:36:17.830Z,10.41
2023-04-15T14:38:48.533Z,10.39
2023-04-15T14:41:17.428Z,10.32
2023-04-15T14:43:46.059Z,10.28
2023-04-15T14:46:14.577Z,10.29
2023-04-15T14:48:43.692Z,10.39
2023-04-15T14:51:12.063Z,10.42
2023-04-15T14:53:41.149Z,10.46
2023-04-15T14:56:10.325Z,10.50
2023-04-15T14:58:38.748Z,10.57
2023-04-15T15:01:06.975Z,10.60
2023-04-15T15:03:36.007Z,10.61
2023-04-15T15:06:04.384Z,10.59
2023-04-15T15:08:33.401Z,10.56
2023-04-15T15:11:01.829Z,10.48
2023-04-15T15:13:30.250Z,10.43
2023-04-15T15:15:58.428Z,10.40
2023-04-15T15:18:27.555Z,10.38
2023-04-15T15:20:55.914Z,10.46
2023-04-15T15:23:24.547Z,10.47
2023-04-15T15:25:53.309Z,10.54
2023-04-15T15:28:22.354Z,10.52
2023-04-15T15:30:50.539Z,10.49
2023-04-15T15:33:19.336Z,10.51
2023-04-15T15:35:47.589Z,10.59
2023-04-15T15:38:16.424Z,10.51
2023-04-15T15:40:44.822Z,10.47
2023-04-15T15:43:13.095Z,10.26
2023-04-15T15:45:41.514Z,10.05
2023-04-15T15:48:10.086Z,9.82
2023-04-15T15:50:38.506Z,9.60
2023-04-15T15:53:07.118Z,9.22
2023-04-15T15:55:35.794Z,9.09
2023-04-15T15:58:04.581Z,8.86
2023-04-15T16:00:32.988Z,8.58
2023-04-15T16:03:07.160Z,8.31
2023-04-15T16:05:36.503Z,8.24
2023-04-15T16:08:05.925Z,8.21
2023-04-15T16:10:34.089Z,8.15
2023-04-15T16:13:02.913Z,8.18
2023-04-15T16:15:32.011Z,8.21
2023-04-15T16:18:00.624Z,8.21
2023-04-15T16:20:28.956Z,8.16
2023-04-15T16:22:59.081Z,8.25
2023-04-15T16:25:27.519Z,8.27
2023-04-15T16:28:03.517Z,8.29
2023-04-15T16:30:41.682Z,8.26
2023-04-15T16:33:10.211Z,8.22
2023-04-15T16:35:38.778Z,8.11
2023-04-15T16:38:07.799Z,8.08
2023-04-15T16:40:37.365Z,8.05
2023-04-15T16:43:11.918Z,7.94
2023-04-15T16:45:39.979Z,7.94
2023-04-15T16:48:08.764Z,8.01
2023-04-15T16:50:37.672Z,8.02
2023-04-15T16:53:06.473Z,7.99
2023-04-15T16:55:34.876Z,8.02
2023-04-15T16:58:04.636Z,8.05
2023-04-15T17:00:36.123Z,8.08
2023-04-15T17:03:06.262Z,8.07
2023-04-15T17:05:35.415Z,8.09
2023-04-15T17:08:04.810Z,8.13
2023-04-15T17:10:33.359Z,8.09
2023-04-15T17:13:01.757Z,8.12
2023-04-15T17:15:30.025Z,8.02
2023-04-15T17:17:58.749Z,7.98
2023-04-15T17:20:26.976Z,7.96
2023-04-15T17:22:55.854Z,7.94
2023-04-15T17:25:27.671Z,7.95
2023-04-15T17:27:55.879Z,7.94
2023-04-15T17:30:24.454Z,7.88
2023-04-15T17:32:52.827Z,7.87
2023-04-15T17:35:23.303Z,7.87
2023-04-15T17:37:52.042Z,7.89
2023-04-15T17:40:21.474Z,7.90
2023-04-15T17:42:49.964Z,7.82
2023-04-15T17:45:18.786Z,7.79
2023-04-15T17:47:48.053Z,7.76
2023-04-15T17:50:16.443Z,7.75
2023-04-15T17:52:48.569Z,7.75
2023-04-15T17:55:17.268Z,7.71
2023-04-15T17:57:46.496Z,7.72
2023-04-15T18:00:15.106Z,7.60
2023-04-15T18:02:43.929Z,7.59
2023-04-15T18:05:12.931Z,7.57
2023-04-15T18:07:41.754Z,7.59
2023-04-15T18:10:11.246Z,7.56
2023-04-15T18:12:43.569Z,7.51
2023-04-15T18:15:12.221Z,7.44
2023-04-15T18:17:40.709Z,7.40
2023-04-15T18:20:09.558Z,7.36
2023-04-15T18:22:37.918Z,7.32
2023-04-15T18:25:06.939Z,7.24
2023-04-15T18:27:39.379Z,7.11
2023-04-15T18:30:10.074Z,7.17
2023-04-15T18:32:39.553Z,7.15
2023-04-15T18:35:08.510Z,7.11
2023-04-15T18:37:36.637Z,7.11
2023-04-15T18:40:06.741Z,7.07
2023-04-15T18:42:35.509Z,6.89
2023-04-15T18:45:04.277Z,6.83
2023-04-15T18:47:33.319Z,6.82
2023-04-15T18:50:01.860Z,6.80
2023-04-15T18:52:31.958Z,6.71
2023-04-15T18:55:03.201Z,6.79
2023-04-15T18:57:34.544Z,6.71
2023-04-15T19:00:04.698Z,6.65
2023-04-15T19:02:33.290Z,6.58
2023-04-15T19:05:04.196Z,6.49
2023-04-15T19:07:33.328Z,6.47
2023-04-15T19:10:03.371Z,6.46
2023-04-15T19:12:31.751Z,6.57
2023-04-15T19:15:03.283Z,6.65
2023-04-15T19:17:32.140Z,6.58
2023-04-15T19:20:00.949Z,6.53
2023-04-15T19:22:30.514Z,6.50
2023-04-15T19:24:59.113Z,6.37
2023-04-15T19:27:28.024Z,6.42
2023-04-15T19:29:56.478Z,6.51
2023-04-15T19:32:25.169Z,6.55
2023-04-15T19:34:54.056Z,6.53
2023-04-15T19:37:22.354Z,6.54
2023-04-15T19:39:50.970Z,6.54
2023-04-15T19:42:19.779Z,6.46
2023-04-15T19:44:48.371Z,6.47
2023-04-15T19:47:17.043Z,6.44
2023-04-15T19:49:45.816Z,6.43
2023-04-15T19:52:14.492Z,6.46
2023-04-15T19:54:43.404Z,6.35
2023-04-15T19:57:12.274Z,6.39
2023-04-15T19:59:41.151Z,6.46
2023-04-15T20:02:09.814Z,6.31
2023-04-15T20:04:38.484Z,6.20
2023-04-15T20:07:07.215Z,6.27
2023-04-15T20:09:35.612Z,6.27
2023-04-15T20:12:44.937Z,6.29
2023-04-15T20:14:53.685Z,6.28
2023-04-15T20:17:22.272Z,5.76
2023-04-15T20:19:50.783Z,6.43
2023-04-15T20:22:19.302Z,6.49
2023-04-15T20:24:47.934Z,6.51
2023-04-15T20:27:16.440Z,6.53
2023-04-15T20:29:44.889Z,6.48
2023-04-15T20:32:13.771Z,6.56
2023-04-15T20:34:42.703Z,6.57
2023-04-15T20:37:12.381Z,6.56
2023-04-15T20:39:42.062Z,6.56
2023-04-15T20:42:10.564Z,6.54
2023-04-15T20:44:39.877Z,6.40
2023-04-15T20:47:08.620Z,6.49
2023-04-15T20:49:38.535Z,6.52
2023-04-15T20:52:08.421Z,6.54
2023-04-15T20:54:37.151Z,6.52
2023-04-15T20:57:05.293Z,6.40
2023-04-15T20:59:34.979Z,6.39
2023-04-15T21:02:03.684Z,6.47
2023-04-15T21:04:31.924Z,6.48
2023-04-15T21:07:00.313Z,6.45
2023-04-15T21:09:29.012Z,6.49
2023-04-15T21:12:01.492Z,6.53
2023-04-15T21:14:30.984Z,6.48
2023-04-15T21:16:59.269Z,6.48
2023-04-15T21:19:27.416Z,6.45
2023-04-15T21:21:56.403Z,6.39
2023-04-15T21:24:24.615Z,6.35
2023-04-15T21:26:52.883Z,6.32
2023-04-15T21:29:21.476Z,6.30
2023-04-15T21:31:50.407Z,6.28
2023-04-15T21:34:18.899Z,6.27
2023-04-15T21:36:47.832Z,6.27
2023-04-15T21:39:17.162Z,6.32
2023-04-15T21:41:45.820Z,6.33
2023-04-15T21:44:15.178Z,6.42
2023-04-15T21:46:45.780Z,6.49
2023-04-15T21:49:14.737Z,6.51
2023-04-15T21:51:42.958Z,6.52
2023-04-15T21:54:11.127Z,6.48
2023-04-15T21:56:39.858Z,6.50
2023-04-15T21:59:08.962Z,6.56
2023-04-15T22:01:47.413Z,6.56
2023-04-15T22:04:16.660Z,6.53
2023-04-15T22:06:44.911Z,6.55
2023-04-15T22:09:14.505Z,6.54
2023-04-15T22:11:43.147Z,6.51
2023-04-15T22:14:11.391Z,6.53
2023-04-15T22:16:39.702Z,6.55
2023-04-15T22:19:08.946Z,6.55
2023-04-15T22:21:37.136Z,6.52
2023-04-15T22:24:31.770Z,6.52
2023-04-15T22:26:54.307Z,6.54
2023-04-15T22:29:22.603Z,6.54
2023-04-15T22:31:51.108Z,6.51
2023-04-15T22:34:22.683Z,6.42
2023-04-15T22:36:52.279Z,6.40
2023-04-15T22:39:21.114Z,6.35
2023-04-15T22:41:49.900Z,6.40
2023-04-15T22:44:18.386Z,6.41
2023-04-15T22:46:46.837Z,6.39
2023-04-15T22:49:14.964Z,6.41
2023-04-15T22:51:43.702Z,6.36
2023-04-15T22:54:12.215Z,6.36
2023-04-15T22:56:40.881Z,6.37
2023-04-15T22:59:09.225Z,6.26
2023-04-15T23:01:38.391Z,6.05
2023-04-15T23:04:10.110Z,6.01
2023-04-15T23:06:52.440Z,6.00
2023-04-15T23:09:21.473Z,5.95
2023-04-15T23:11:49.716Z,6.02
2023-04-15T23:14:18.539Z,6.02
2023-04-15T23:16:46.826Z,6.09
2023-04-15T23:19:14.884Z,6.11
2023-04-15T23:21:43.504Z,6.14
2023-04-15T23:24:12.352Z,6.16
2023-04-15T23:26:40.836Z,6.12
2023-04-15T23:29:09.835Z,6.16
2023-04-15T23:31:39.412Z,6.14
2023-04-15T23:34:07.822Z,6.17
2023-04-15T23:36:36.312Z,6.17
2023-04-15T23:39:04.781Z,6.03
2023-04-15T23:41:33.098Z,5.90
2023-04-15T23:44:01.610Z,5.88
2023-04-15T23:46:30.136Z,5.88
2023-04-15T23:48:58.404Z,5.79
2023-04-15T23:51:27.029Z,5.73
2023-04-15T23:53:55.476Z,5.70
2023-04-15T23:56:23.630Z,5.43
2023-04-15T23:58:52.162Z,5.85
